createdAt,value
2023-04-11T00:01:15.078Z,3.50
2023-04-11T00:03:41.816Z,3.25
2023-04-11T00:06:08.824Z,3.15
2023-04-11T00:08:35.430Z,3.38
2023-04-11T00:11:02.055Z,3.45
2023-04-11T00:13:28.709Z,2.97
2023-04-11T00:18:23.394Z,3.05
2023-04-11T00:20:49.980Z,3.03
2023-04-11T00:23:16.795Z,3.03
2023-04-11T00:28:10.999Z,3.45
2023-04-11T00:30:38.684Z,3.63
2023-04-11T00:33:05.368Z,3.13
2023-04-11T00:38:02.409Z,2.67
2023-04-11T00:40:29.201Z,3.30
2023-04-11T00:42:59.107Z,2.88
2023-04-11T00:45:26.321Z,2.85
2023-04-11T00:47:54.045Z,3.25
2023-04-11T00:50:22.463Z,3.30
2023-04-11T00:52:51.905Z,3.30
2023-04-11T00:55:18.506Z,3.05
2023-04-11T00:57:45.260Z,3.08
2023-04-11T01:02:45.151Z,3.08
2023-04-11T01:05:15.030Z,3.75
2023-04-11T01:07:45.853Z,3.47
2023-04-11T01:10:14.021Z,3.15
2023-04-11T01:12:41.326Z,3.22
2023-04-11T01:15:08.361Z,3.15
2023-04-11T01:17:35.369Z,3.17
2023-04-11T01:20:02.074Z,3.55
2023-04-11T01:24:56.582Z,3.05
2023-04-11T01:27:23.492Z,3.08
2023-04-11T01:29:50.316Z,3.25
2023-04-11T01:32:17.848Z,3.38
2023-04-11T01:34:46.290Z,2.70
2023-04-11T01:37:12.947Z,3.13
2023-04-11T01:42:06.679Z,3.03
2023-04-11T01:44:33.801Z,3.22
2023-04-11T01:47:00.754Z,2.80
2023-04-11T01:49:27.441Z,2.63
2023-04-11T01:54:20.629Z,2.85
2023-04-11T01:59:14.206Z,2.50
2023-04-11T02:01:44.498Z,2.88
2023-04-11T02:04:11.470Z,2.70
2023-04-11T02:06:38.803Z,2.88
2023-04-11T02:09:05.638Z,2.53
2023-04-11T02:11:32.246Z,2.30
2023-04-11T02:13:59.879Z,2.75
2023-04-11T02:16:30.172Z,2.67
2023-04-11T02:18:57.594Z,2.90
2023-04-11T02:21:24.392Z,2.95
2023-04-11T02:23:51.126Z,4.00
2023-04-11T02:28:44.411Z,2.50
2023-04-11T02:33:38.045Z,2.70
2023-04-11T02:38:31.359Z,2.40
2023-04-11T02:40:59.627Z,2.53
2023-04-11T02:43:26.390Z,3.08
2023-04-11T02:48:32.740Z,2.80
2023-04-11T02:50:59.376Z,2.40
2023-04-11T02:53:26.235Z,2.65
2023-04-11T02:55:52.814Z,2.70
2023-04-11T02:58:20.281Z,2.60
2023-04-11T03:00:49.761Z,3.30
2023-04-11T03:03:16.487Z,2.55
2023-04-11T03:05:43.168Z,2.30
2023-04-11T03:08:09.790Z,2.50
2023-04-11T03:10:36.459Z,2.80
2023-04-11T03:13:03.100Z,3.53
2023-04-11T03:17:59.319Z,2.92
2023-04-11T03:22:52.624Z,2.70
2023-04-11T03:25:19.354Z,2.92
2023-04-11T03:30:13.879Z,2.65
2023-04-11T03:32:41.104Z,2.63
2023-04-11T03:35:09.226Z,2.60
2023-04-11T03:37:36.594Z,2.97
2023-04-11T03:40:04.429Z,2.90
2023-04-11T03:42:31.089Z,2.75
2023-04-11T03:47:24.257Z,3.00
2023-04-11T03:49:51.301Z,3.35
2023-04-11T03:52:18.202Z,3.33
2023-04-11T03:54:47.072Z,3.28
2023-04-11T03:57:14.383Z,3.00
2023-04-11T03:59:41.086Z,3.05
2023-04-11T04:02:08.105Z,4.85
2023-04-11T04:04:35.168Z,3.33
2023-04-11T04:07:02.046Z,3.67
2023-04-11T04:09:28.758Z,2.92
2023-04-11T04:14:21.826Z,3.13
2023-04-11T04:16:48.859Z,3.72
2023-04-11T04:19:15.593Z,3.53
2023-04-11T04:24:08.756Z,3.13
2023-04-11T04:29:05.763Z,3.40
2023-04-11T04:31:37.556Z,4.75
2023-04-11T04:34:08.942Z,3.55
2023-04-11T04:36:46.339Z,2.83
2023-04-11T04:39:20.234Z,3.67
2023-04-11T04:41:58.391Z,4.38
2023-04-11T04:44:25.426Z,4.50
2023-04-11T04:46:56.308Z,3.42
2023-04-11T04:49:23.343Z,2.78
2023-04-11T04:51:50.058Z,3.42
2023-04-11T04:56:48.383Z,3.30
2023-04-11T04:59:16.482Z,3.00
2023-04-11T05:01:43.389Z,3.35
2023-04-11T05:04:10.451Z,2.83
2023-04-11T05:06:37.192Z,2.97
2023-04-11T05:09:06.324Z,2.97
2023-04-11T05:11:33.647Z,3.10
2023-04-11T05:14:00.597Z,2.80
2023-04-11T05:16:27.241Z,3.60
2023-04-11T05:18:53.924Z,2.97
2023-04-11T05:21:20.619Z,3.10
2023-04-11T05:26:13.996Z,3.13
2023-04-11T05:28:41.689Z,3.33
2023-04-11T05:31:10.006Z,4.18
2023-04-11T05:33:38.567Z,3.45
2023-04-11T05:36:06.496Z,4.57
2023-04-11T05:38:33.591Z,3.20
2023-04-11T05:41:00.582Z,3.33
2023-04-11T05:43:27.375Z,4.05
2023-04-11T05:48:20.716Z,6.47
2023-04-11T05:50:47.319Z,3.92
2023-04-11T05:53:14.009Z,3.95
2023-04-11T05:55:40.704Z,3.78
2023-04-11T06:00:33.888Z,4.68
2023-04-11T06:03:02.099Z,5.20
2023-04-11T06:05:32.007Z,4.60
2023-04-11T06:08:01.980Z,4.47
2023-04-11T06:10:29.718Z,4.50
2023-04-11T06:12:57.437Z,6.47
2023-04-11T06:15:25.769Z,4.43
2023-04-11T06:17:53.013Z,5.45
2023-04-11T06:20:20.716Z,6.18
2023-04-11T06:22:51.493Z,5.38
2023-04-11T06:25:20.050Z,6.15
2023-04-11T06:27:47.519Z,7.85
2023-04-11T06:30:14.606Z,7.78
2023-04-11T06:32:41.406Z,6.60
2023-04-11T06:35:08.522Z,6.88
2023-04-11T06:37:35.248Z,5.55
2023-04-11T06:42:28.580Z,7.25
2023-04-11T06:44:55.167Z,5.78
2023-04-11T06:47:21.896Z,5.78
2023-04-11T06:52:15.635Z,4.90
2023-04-11T06:54:42.235Z,5.32
2023-04-11T06:57:10.721Z,5.35
2023-04-11T06:59:37.816Z,5.55
2023-04-11T07:02:04.587Z,6.47
2023-04-11T07:04:31.478Z,4.90
2023-04-11T07:06:58.170Z,3.65
2023-04-11T07:09:24.849Z,3.78
2023-04-11T07:11:51.520Z,4.88
2023-04-11T07:16:45.458Z,3.00
2023-04-11T07:19:12.387Z,2.90
2023-04-11T07:21:38.991Z,2.70
2023-04-11T07:24:06.762Z,3.00
2023-04-11T07:26:35.494Z,2.80
2023-04-11T07:29:02.205Z,3.38
2023-04-11T07:33:55.809Z,2.90
2023-04-11T07:36:22.822Z,3.08
2023-04-11T07:41:16.548Z,2.67
2023-04-11T07:43:43.396Z,2.95
2023-04-11T07:48:36.955Z,2.72
2023-04-11T07:51:03.633Z,3.30
2023-04-11T07:53:32.829Z,5.00
2023-04-11T07:55:59.610Z,3.22
2023-04-11T08:00:53.829Z,3.20
2023-04-11T08:03:21.264Z,3.63
2023-04-11T08:05:48.064Z,3.53
2023-04-11T08:08:14.645Z,3.20
2023-04-11T08:10:41.244Z,3.45
2023-04-11T08:13:07.906Z,3.80
2023-04-11T08:15:37.067Z,3.83
2023-04-11T08:18:05.142Z,4.70
2023-04-11T08:20:31.869Z,2.97
2023-04-11T08:22:58.915Z,3.20
2023-04-11T08:25:25.599Z,2.80
2023-04-11T08:30:20.575Z,3.27
2023-04-11T08:32:47.381Z,3.03
2023-04-11T08:35:14.236Z,2.72
2023-04-11T08:40:09.325Z,3.22
2023-04-11T08:42:36.417Z,3.10
2023-04-11T08:45:05.441Z,2.70
2023-04-11T08:47:32.148Z,2.60
2023-04-11T08:52:25.737Z,2.72
2023-04-11T08:54:56.269Z,3.28
2023-04-11T08:57:28.009Z,3.33
2023-04-11T08:59:56.356Z,2.95
2023-04-11T09:02:23.250Z,3.10
2023-04-11T09:04:50.040Z,3.10
2023-04-11T09:07:17.178Z,3.83
2023-04-11T09:09:44.044Z,3.53
2023-04-11T09:12:11.272Z,3.33
2023-04-11T09:14:38.188Z,2.88
2023-04-11T09:17:13.835Z,3.05
2023-04-11T09:19:47.566Z,3.33
2023-04-11T09:22:15.873Z,3.45
2023-04-11T09:24:43.149Z,3.78
2023-04-11T09:27:11.681Z,4.22
2023-04-11T09:29:45.460Z,3.58
2023-04-11T09:32:30.877Z,3.80
2023-04-11T09:35:20.969Z,3.20
2023-04-11T09:37:54.248Z,4.45
2023-04-11T09:40:26.479Z,3.70
2023-04-11T09:43:11.379Z,3.33
2023-04-11T09:45:47.682Z,3.22
2023-04-11T09:48:18.764Z,5.25
2023-04-11T09:53:12.692Z,4.88
2023-04-11T09:55:39.900Z,3.50
2023-04-11T09:58:11.314Z,3.28
2023-04-11T10:00:40.241Z,3.28
2023-04-11T10:03:07.033Z,4.88
2023-04-11T10:05:34.380Z,3.80
2023-04-11T10:08:08.713Z,3.83
2023-04-11T10:10:36.450Z,3.38
2023-04-11T10:13:03.767Z,3.20
2023-04-11T10:15:30.871Z,4.10
2023-04-11T10:18:11.825Z,2.95
2023-04-11T10:20:45.384Z,4.75
2023-04-11T10:23:13.498Z,2.95
2023-04-11T10:25:49.711Z,2.95
2023-04-11T10:28:39.872Z,2.55
2023-04-11T10:31:13.547Z,6.63
2023-04-11T10:34:00.876Z,3.53
2023-04-11T10:36:27.606Z,3.85
2023-04-11T10:41:25.430Z,3.90
2023-04-11T10:43:53.002Z,6.13
2023-04-11T10:46:21.831Z,2.83
2023-04-11T10:49:02.658Z,3.95
2023-04-11T10:51:31.715Z,3.35
2023-04-11T10:54:00.274Z,3.40
2023-04-11T10:56:51.594Z,3.42
2023-04-11T10:59:36.441Z,3.00
2023-04-11T11:02:03.421Z,3.13
2023-04-11T11:04:37.935Z,2.65
2023-04-11T11:07:06.529Z,3.10
2023-04-11T11:09:34.282Z,3.58
2023-04-11T11:12:14.342Z,2.97
2023-04-11T11:14:43.803Z,3.95
2023-04-11T11:17:13.189Z,3.00
2023-04-11T11:19:47.077Z,3.38
2023-04-11T11:22:17.888Z,3.67
2023-04-11T11:24:44.555Z,2.45
2023-04-11T11:27:21.371Z,2.28
2023-04-11T11:29:48.379Z,2.35
2023-04-11T11:32:28.860Z,2.00
2023-04-11T11:34:57.819Z,2.53
2023-04-11T11:37:26.292Z,2.20
2023-04-11T11:39:53.643Z,2.13
2023-04-11T11:42:20.654Z,2.65
2023-04-11T11:44:47.340Z,1.80
2023-04-11T11:47:16.884Z,3.42
2023-04-11T11:49:54.434Z,3.08
2023-04-11T11:52:41.472Z,2.28
2023-04-11T11:55:20.492Z,2.75
2023-04-11T11:57:48.137Z,2.55
2023-04-11T12:00:23.547Z,3.08
2023-04-11T12:02:53.337Z,4.10
2023-04-11T12:05:20.604Z,3.75
2023-04-11T12:07:47.246Z,2.03
2023-04-11T12:12:43.273Z,3.53
2023-04-11T12:15:17.212Z,2.97
2023-04-11T12:17:48.760Z,2.30
2023-04-11T12:20:15.937Z,2.50
2023-04-11T12:22:42.583Z,2.47
2023-04-11T12:27:41.740Z,3.00
2023-04-11T12:30:12.126Z,2.97
2023-04-11T12:32:38.933Z,3.83
2023-04-11T12:35:06.672Z,3.17
2023-04-11T12:37:34.504Z,4.35
2023-04-11T12:40:02.025Z,2.50
2023-04-11T12:42:28.663Z,2.70
2023-04-11T12:47:22.041Z,3.83
2023-04-11T12:49:48.806Z,4.50
2023-04-11T12:52:15.793Z,2.90
2023-04-11T12:54:42.482Z,2.85
2023-04-11T12:59:35.814Z,3.33
2023-04-11T13:04:29.327Z,3.47
2023-04-11T13:07:00.960Z,3.88
2023-04-11T13:09:34.575Z,3.33
2023-04-11T13:12:04.651Z,3.03
2023-04-11T13:14:31.493Z,3.28
2023-04-11T13:16:58.122Z,3.42
2023-04-11T13:21:51.313Z,6.55
2023-04-11T13:26:45.267Z,2.90
2023-04-11T13:29:14.799Z,2.95
2023-04-11T13:31:41.675Z,4.75
2023-04-11T13:34:08.712Z,6.40
2023-04-11T13:36:35.849Z,4.60
2023-04-11T13:39:02.488Z,3.75
2023-04-11T13:43:56.168Z,2.90
2023-04-11T13:46:23.396Z,4.75
2023-04-11T13:48:50.024Z,3.22
2023-04-11T13:53:43.402Z,2.83
2023-04-11T13:56:10.818Z,2.42
2023-04-11T13:58:38.422Z,3.78
2023-04-11T14:01:05.478Z,4.97
2023-04-11T14:03:33.874Z,3.25
2023-04-11T14:06:01.221Z,2.38
2023-04-11T14:08:29.098Z,2.80
2023-04-11T14:10:55.952Z,2.20
2023-04-11T14:13:22.706Z,2.13
2023-04-11T14:15:52.191Z,2.03
2023-04-11T14:18:27.916Z,2.28
2023-04-11T14:23:23.494Z,2.53
2023-04-11T14:25:50.908Z,3.38
2023-04-11T14:28:18.524Z,2.20
2023-04-11T14:30:45.616Z,2.58
2023-04-11T14:33:12.699Z,2.88
2023-04-11T14:35:39.451Z,2.80
2023-04-11T14:38:06.025Z,2.40
2023-04-11T14:40:32.616Z,3.33
2023-04-11T14:45:25.971Z,2.20
2023-04-11T14:50:19.405Z,2.50
2023-04-11T14:55:14.977Z,2.55
2023-04-11T15:00:18.404Z,3.25
2023-04-11T15:02:46.785Z,2.75
2023-04-11T15:05:18.182Z,2.40
2023-04-11T15:07:46.768Z,2.53
2023-04-11T15:10:14.839Z,3.03
2023-04-11T15:12:41.737Z,2.92
2023-04-11T15:15:09.642Z,3.03
2023-04-11T15:17:46.464Z,2.97
2023-04-11T15:20:14.733Z,3.95
2023-04-11T15:22:45.731Z,3.08
2023-04-11T15:25:16.252Z,3.50
2023-04-11T15:27:43.453Z,3.20
2023-04-11T15:30:11.579Z,3.70
2023-04-11T15:32:45.107Z,4.15
2023-04-11T15:35:12.042Z,3.70
2023-04-11T15:37:38.663Z,3.22
2023-04-11T15:42:38.471Z,3.55
2023-04-11T15:45:05.717Z,2.80
2023-04-11T15:47:33.697Z,3.28
2023-04-11T15:50:04.435Z,2.83
2023-04-11T15:52:31.074Z,3.08
2023-04-11T15:54:57.646Z,3.15
2023-04-11T15:57:24.398Z,3.10
2023-04-11T16:02:20.273Z,2.83
2023-04-11T16:04:48.165Z,2.85
2023-04-11T16:07:19.323Z,3.70
2023-04-11T16:09:46.610Z,3.83
2023-04-11T16:12:13.472Z,3.10
2023-04-11T16:14:40.193Z,4.65
2023-04-11T16:19:33.356Z,3.50
2023-04-11T16:24:28.840Z,3.53
2023-04-11T16:26:57.019Z,4.03
2023-04-11T16:29:23.604Z,3.97
2023-04-11T16:31:50.222Z,3.85
2023-04-11T16:34:17.180Z,3.05
2023-04-11T16:36:44.009Z,2.92
2023-04-11T16:39:10.573Z,3.00
2023-04-11T16:41:37.125Z,3.65
2023-04-11T16:44:06.082Z,3.42
2023-04-11T16:46:35.690Z,3.65
2023-04-11T16:49:02.249Z,3.58
2023-04-11T16:51:28.805Z,3.63
2023-04-11T16:53:56.292Z,3.20
2023-04-11T16:56:26.688Z,3.65
2023-04-11T16:58:54.025Z,3.15
2023-04-11T17:01:20.854Z,3.17
2023-04-11T17:03:47.705Z,2.58
2023-04-11T17:06:16.384Z,2.97
2023-04-11T17:08:44.491Z,2.75
2023-04-11T17:11:11.484Z,2.97
2023-04-11T17:13:40.463Z,3.65
2023-04-11T17:16:08.194Z,3.75
2023-04-11T17:18:34.953Z,3.50
2023-04-11T17:21:01.677Z,4.57
2023-04-11T17:23:41.257Z,4.15
2023-04-11T17:26:09.512Z,5.00
2023-04-11T17:35:31.178Z,3.75
2023-04-11T17:37:57.812Z,3.67
2023-04-11T17:42:51.541Z,3.03
2023-04-11T17:45:21.968Z,3.85
2023-04-11T17:47:48.861Z,4.63
2023-04-11T17:50:16.638Z,4.68
2023-04-11T17:52:45.174Z,5.30
2023-04-11T17:55:13.439Z,5.70
2023-04-11T17:57:40.355Z,4.07
2023-04-11T18:00:22.467Z,4.00
2023-04-11T18:02:54.697Z,3.78
2023-04-11T18:05:24.891Z,3.45
2023-04-11T18:07:54.271Z,3.25
2023-04-11T18:10:22.273Z,3.92
2023-04-11T18:12:51.670Z,4.50
2023-04-11T18:15:19.056Z,6.07
2023-04-11T18:17:46.026Z,5.28
2023-04-11T18:20:16.921Z,5.22
2023-04-11T18:22:51.861Z,6.20
2023-04-11T18:25:20.526Z,6.03
2023-04-11T18:27:47.349Z,8.65
2023-04-11T18:30:15.849Z,6.95
2023-04-11T18:32:48.064Z,6.22
2023-04-11T18:35:16.411Z,5.00
2023-04-11T18:37:43.604Z,4.97
2023-04-11T18:40:12.080Z,4.00
2023-04-11T18:42:47.850Z,4.50
2023-04-11T18:45:17.990Z,4.20
2023-04-11T18:47:47.737Z,3.92
2023-04-11T18:50:15.570Z,4.93
2023-04-11T18:52:43.343Z,5.65
2023-04-11T18:55:10.865Z,5.78
2023-04-11T18:57:38.593Z,5.38
2023-04-11T19:00:18.547Z,6.00
2023-04-11T19:02:47.027Z,8.98
2023-04-11T19:05:14.493Z,19.20
2023-04-11T19:07:42.376Z,9.68
2023-04-11T19:10:10.953Z,8.27
2023-04-11T19:12:37.980Z,16.92
2023-04-11T19:15:09.343Z,10.68
2023-04-11T19:17:41.493Z,10.57
2023-04-11T19:20:13.221Z,26.10
2023-04-11T19:22:41.223Z,32.80
2023-04-11T19:25:11.964Z,36.40
2023-04-11T19:27:41.582Z,48.25
2023-04-11T19:30:10.350Z,18.40
2023-04-11T21:42:37.281Z,5.03
2023-04-11T21:45:04.319Z,6.20
2023-04-11T21:47:31.020Z,6.30
2023-04-11T21:49:57.634Z,5.20
2023-04-11T21:52:24.272Z,5.15
2023-04-11T21:54:51.004Z,4.90
2023-04-11T21:59:44.110Z,4.45
2023-04-11T22:02:10.946Z,4.93
2023-04-11T22:04:51.346Z,6.03
2023-04-11T22:07:26.771Z,5.93
2023-04-11T22:09:59.966Z,10.50
2023-04-11T22:12:27.283Z,7.82
2023-04-11T22:14:57.382Z,6.20
2023-04-11T22:17:24.120Z,5.93
2023-04-11T22:19:50.730Z,8.07
2023-04-11T22:22:18.106Z,6.47
2023-04-11T22:24:46.568Z,5.03
2023-04-11T22:27:13.841Z,5.03
2023-04-11T22:29:41.507Z,6.03
2023-04-11T22:32:08.523Z,5.38
2023-04-11T22:34:35.166Z,5.30
2023-04-11T22:37:01.744Z,5.38
2023-04-11T22:39:28.422Z,5.40
2023-04-11T22:41:55.538Z,5.53
2023-04-11T22:44:22.191Z,6.10
2023-04-11T22:47:08.943Z,5.55
2023-04-11T22:49:42.132Z,5.35
2023-04-11T22:52:10.888Z,6.28
2023-04-11T22:54:38.706Z,7.90
2023-04-11T22:57:05.683Z,5.68
2023-04-11T22:59:32.661Z,5.80
2023-04-11T23:01:59.340Z,5.10
2023-04-11T23:04:26.400Z,5.13
2023-04-11T23:06:53.884Z,4.72
2023-04-11T23:09:20.995Z,5.45
2023-04-11T23:11:48.889Z,5.30
2023-04-11T23:14:18.196Z,5.15
2023-04-11T23:16:45.289Z,5.47
2023-04-11T23:19:12.339Z,5.00
2023-04-11T23:21:39.018Z,4.55
2023-04-11T23:24:07.086Z,4.82
2023-04-11T23:26:33.977Z,4.68
2023-04-11T23:31:28.038Z,5.50
2023-04-11T23:33:55.778Z,4.57
2023-04-11T23:36:22.942Z,5.32
2023-04-11T23:41:16.010Z,4.88
2023-04-11T23:43:42.728Z,4.95
2023-04-11T23:46:09.571Z,5.32
2023-04-11T23:51:02.744Z,5.03
2023-04-11T23:53:29.444Z,4.68
2023-04-11T23:55:56.088Z,4.55
2023-04-11T23:58:22.731Z,4.97
